Terminal Aerodrome Forecast
Issued by NWS Grand Forks, ND

Home | Current Version | Previous Version | Text Only | Print | Product List | Glossary Off
Versions: 1 2 3 4 5 6 7 8 9 10 11 12 13 14 15 16 17 18

073
FTUS43 KFGF 101733
TAFGFK
TAF
KGFK 101733Z 1018/1118 13004KT P6SM SCT150
     FM102100 09007KT P6SM BKN150
     FM110500 06007KT P6SM OVC035
     FM110700 06008KT 4SM -SN OVC025
     FM110900 05010KT 2SM -SN OVC015
     FM111100 05009KT 1 1/2SM -SN OVC008=

USA.gov is the U.S. government's official web portal to all federal, state and local government web resources and services.